createdAt,value
2022-11-25T00:01:26.882Z,97210.00
2022-11-25T00:03:58.106Z,97202.00
2022-11-25T00:06:31.729Z,97203.00
2022-11-25T00:09:05.699Z,97203.00
2022-11-25T00:11:36.148Z,97203.00
2022-11-25T00:14:03.052Z,97194.00
2022-11-25T00:16:29.345Z,97183.00
2022-11-25T00:18:57.509Z,97193.00
2022-11-25T00:21:28.004Z,97191.00
2022-11-25T00:24:01.141Z,97187.00
2022-11-25T00:26:31.861Z,97183.00
2022-11-25T00:29:01.793Z,97182.00
2022-11-25T00:31:34.268Z,97186.00
2022-11-25T00:34:00.790Z,97187.00
2022-11-25T00:36:29.889Z,97195.00
2022-11-25T00:39:03.451Z,97183.00
2022-11-25T00:41:48.302Z,97175.00
2022-11-25T00:44:38.323Z,97183.00
2022-11-25T00:47:20.789Z,97195.00
2022-11-25T00:49:50.944Z,97182.00
2022-11-25T00:52:21.255Z,97182.00
2022-11-25T00:54:49.022Z,97185.00
2022-11-25T00:57:18.500Z,97185.00
2022-11-25T00:59:44.825Z,97168.00
2022-11-25T01:02:14.028Z,97183.00
2022-11-25T01:04:40.312Z,97191.00
2022-11-25T01:07:07.158Z,97180.00
2022-11-25T01:09:34.241Z,97181.00
2022-11-25T01:12:03.764Z,97191.00
2022-11-25T01:14:30.596Z,97182.00
2022-11-25T01:16:56.782Z,97188.00
2022-11-25T01:19:24.057Z,97183.00
2022-11-25T01:21:50.337Z,97190.00
2022-11-25T01:24:17.538Z,97196.00
2022-11-25T01:26:45.042Z,97198.00
2022-11-25T01:29:18.239Z,97198.00
2022-11-25T01:31:45.831Z,97192.00
2022-11-25T01:34:20.052Z,97195.00
2022-11-25T01:36:46.819Z,97193.00
2022-11-25T01:39:18.741Z,97198.00
2022-11-25T01:41:46.067Z,97187.00
2022-11-25T01:44:20.512Z,97190.00
2022-11-25T01:47:25.431Z,97170.00
2022-11-25T01:50:02.996Z,97185.00
2022-11-25T01:52:48.392Z,97180.00
2022-11-25T01:55:27.723Z,97179.00
2022-11-25T01:58:14.301Z,97161.00
2022-11-25T02:00:41.568Z,97166.00
2022-11-25T02:03:09.237Z,97168.00
2022-11-25T02:06:02.399Z,97152.00
2022-11-25T02:08:32.247Z,97156.00
2022-11-25T02:11:03.897Z,97162.00
2022-11-25T02:13:32.832Z,97159.00
2022-11-25T02:16:00.059Z,97151.00
2022-11-25T02:18:27.247Z,97168.00
2022-11-25T02:20:53.520Z,97160.00
2022-11-25T02:23:47.313Z,97164.00
2022-11-25T02:26:13.619Z,97162.00
2022-11-25T02:28:40.121Z,97155.00
2022-11-25T02:31:07.389Z,97150.00
2022-11-25T02:33:35.475Z,97156.00
2022-11-25T02:36:10.491Z,97180.00
2022-11-25T02:38:52.798Z,97144.00
2022-11-25T02:41:38.039Z,97139.00
2022-11-25T02:44:05.501Z,97148.00
2022-11-25T02:46:32.655Z,97153.00
2022-11-25T02:49:10.516Z,97142.00
2022-11-25T02:51:41.526Z,97133.00
2022-11-25T02:54:09.537Z,97146.00
2022-11-25T02:56:36.827Z,97140.00
2022-11-25T02:59:04.224Z,97132.00
2022-11-25T03:01:31.597Z,97133.00
2022-11-25T03:03:59.176Z,97131.00
2022-11-25T03:06:28.102Z,97151.00
2022-11-25T03:08:54.553Z,97144.00
2022-11-25T03:11:20.718Z,97145.00
2022-11-25T03:13:46.944Z,97153.00
2022-11-25T03:16:14.239Z,97154.00
2022-11-25T03:18:40.441Z,97131.00
2022-11-25T03:21:06.815Z,97129.00
2022-11-25T03:23:33.013Z,97136.00
2022-11-25T03:26:06.073Z,97141.00
2022-11-25T03:28:32.350Z,97125.00
2022-11-25T03:30:58.508Z,97105.00
2022-11-25T03:33:24.713Z,97110.00
2022-11-25T03:35:50.891Z,97092.00
2022-11-25T03:38:17.857Z,97117.00
2022-11-25T03:40:44.133Z,97124.00
2022-11-25T03:43:10.375Z,97116.00
2022-11-25T03:45:36.953Z,97109.00
2022-11-25T03:48:06.081Z,97119.00
2022-11-25T03:50:32.506Z,97119.00
2022-11-25T03:52:58.683Z,97125.00
2022-11-25T03:55:25.383Z,97126.00
2022-11-25T03:57:51.561Z,97112.00
2022-11-25T04:00:20.635Z,97118.00
2022-11-25T04:02:54.139Z,97132.00
2022-11-25T04:05:20.706Z,97132.00
2022-11-25T04:07:49.020Z,97118.00
2022-11-25T04:10:16.686Z,97122.00
2022-11-25T04:12:48.651Z,97131.00
2022-11-25T04:15:21.984Z,97115.00
2022-11-25T04:17:52.929Z,97128.00
2022-11-25T04:20:19.868Z,97107.00
2022-11-25T04:22:52.256Z,97115.00
2022-11-25T04:25:19.499Z,97117.00
2022-11-25T04:27:46.213Z,97119.00
2022-11-25T04:30:14.324Z,97118.00
2022-11-25T04:32:42.600Z,97115.00
2022-11-25T04:35:10.210Z,97125.00
2022-11-25T04:37:38.347Z,97117.00
2022-11-25T04:40:05.580Z,97125.00
2022-11-25T04:42:33.887Z,97117.00
2022-11-25T04:45:23.007Z,97125.00
2022-11-25T04:47:51.214Z,97131.00
2022-11-25T04:50:21.260Z,97142.00
2022-11-25T04:53:07.733Z,97126.00
2022-11-25T04:55:33.920Z,97124.00
2022-11-25T04:58:03.736Z,97132.00
2022-11-25T05:00:31.885Z,97140.00
2022-11-25T05:02:58.114Z,97154.00
2022-11-25T05:05:24.336Z,97178.00
2022-11-25T05:07:50.666Z,97187.00
2022-11-25T05:10:19.705Z,97193.00
2022-11-25T05:12:48.365Z,97186.00
2022-11-25T05:15:17.763Z,97179.00
2022-11-25T05:17:46.235Z,97171.00
2022-11-25T05:20:13.525Z,97179.00
2022-11-25T05:22:39.799Z,97169.00
2022-11-25T05:25:09.995Z,97169.00
2022-11-25T05:27:42.770Z,97168.00
2022-11-25T05:30:10.368Z,97156.00
2022-11-25T05:32:37.147Z,97156.00
2022-11-25T05:35:07.898Z,97151.00
2022-11-25T05:37:34.470Z,97163.00
2022-11-25T05:40:05.405Z,97154.00
2022-11-25T05:42:50.221Z,97142.00
2022-11-25T05:45:17.900Z,97163.00
2022-11-25T05:47:44.067Z,97150.00
2022-11-25T05:50:13.153Z,97144.00
2022-11-25T05:52:39.460Z,97166.00
2022-11-25T05:55:06.511Z,97165.00
2022-11-25T05:57:32.778Z,97172.00
2022-11-25T06:00:05.763Z,97166.00
2022-11-25T06:02:41.173Z,97173.00
2022-11-25T06:05:09.177Z,97161.00
2022-11-25T06:07:35.432Z,97178.00
2022-11-25T06:10:03.461Z,97162.00
2022-11-25T06:12:31.834Z,97178.00
2022-11-25T06:14:58.059Z,97179.00
2022-11-25T06:17:24.366Z,97173.00
2022-11-25T06:19:58.882Z,97179.00
2022-11-25T06:22:25.086Z,97174.00
2022-11-25T06:24:58.937Z,97188.00
2022-11-25T06:27:31.948Z,97176.00
2022-11-25T06:30:13.517Z,97184.00
2022-11-25T06:32:45.327Z,97184.00
2022-11-25T06:35:21.978Z,97192.00
2022-11-25T06:37:54.927Z,97191.00
2022-11-25T06:40:21.112Z,97201.00
2022-11-25T06:42:47.443Z,97206.00
2022-11-25T06:45:13.658Z,97192.00
2022-11-25T06:47:39.838Z,97202.00
2022-11-25T06:50:06.767Z,97205.00
2022-11-25T06:52:33.155Z,97196.00
2022-11-25T06:54:59.302Z,97226.00
2022-11-25T06:57:25.403Z,97232.00
2022-11-25T06:59:51.708Z,97221.00
2022-11-25T07:02:17.884Z,97219.00
2022-11-25T07:04:44.179Z,97217.00
2022-11-25T07:07:10.414Z,97202.00
2022-11-25T07:09:36.870Z,97231.00
2022-11-25T07:12:05.095Z,97217.00
2022-11-25T07:14:31.508Z,97211.00
2022-11-25T07:16:57.684Z,97217.00
2022-11-25T07:19:23.995Z,97230.00
2022-11-25T07:21:50.492Z,97230.00
2022-11-25T07:24:17.680Z,97228.00
2022-11-25T07:26:44.692Z,97233.00
2022-11-25T07:29:36.459Z,97245.00
2022-11-25T07:32:03.385Z,97247.00
2022-11-25T07:34:33.413Z,97239.00
2022-11-25T07:36:59.569Z,97247.00
2022-11-25T07:39:25.731Z,97245.00
2022-11-25T07:41:53.516Z,97266.00
2022-11-25T07:44:20.122Z,97252.00
2022-11-25T07:46:59.525Z,97248.00
2022-11-25T07:49:25.776Z,97255.00
2022-11-25T07:51:59.023Z,97259.00
2022-11-25T07:54:25.629Z,97255.00
2022-11-25T07:56:52.820Z,97265.00
2022-11-25T07:59:22.771Z,97277.00
2022-11-25T08:01:51.638Z,97272.00
2022-11-25T08:04:20.695Z,97283.00
2022-11-25T08:06:49.950Z,97288.00
2022-11-25T08:09:20.801Z,97263.00
2022-11-25T08:11:48.646Z,97269.00
2022-11-25T08:14:16.023Z,97276.00
2022-11-25T08:16:42.880Z,97276.00
2022-11-25T08:19:14.128Z,97289.00
2022-11-25T08:21:40.810Z,97290.00
2022-11-25T08:24:07.313Z,97297.00
2022-11-25T08:26:36.833Z,97301.00
2022-11-25T08:29:06.222Z,97313.00
2022-11-25T08:31:37.546Z,97296.00
2022-11-25T08:34:06.213Z,97306.00
2022-11-25T08:36:35.415Z,97316.00
2022-11-25T08:39:22.636Z,97311.00
2022-11-25T08:41:52.361Z,97323.00
2022-11-25T08:44:18.618Z,97323.00
2022-11-25T08:46:44.817Z,97316.00
2022-11-25T08:49:12.774Z,97313.00
2022-11-25T08:51:39.796Z,97326.00
2022-11-25T08:54:07.947Z,97322.00
2022-11-25T08:56:34.943Z,97329.00
2022-11-25T08:59:02.617Z,97330.00
2022-11-25T09:01:28.922Z,97328.00
2022-11-25T09:03:57.323Z,97327.00
2022-11-25T09:06:26.131Z,97317.00
2022-11-25T09:08:57.524Z,97343.00
2022-11-25T09:11:25.406Z,97346.00
2022-11-25T09:13:51.939Z,97334.00
2022-11-25T09:16:18.660Z,97344.00
2022-11-25T09:18:45.052Z,97336.00
2022-11-25T09:21:15.141Z,97354.00
2022-11-25T09:23:41.434Z,97364.00
2022-11-25T09:26:19.570Z,97353.00
2022-11-25T09:28:45.732Z,97350.00
2022-11-25T09:31:11.978Z,97362.00
2022-11-25T09:33:38.634Z,97370.00
2022-11-25T09:36:05.528Z,97365.00
2022-11-25T09:38:31.807Z,97361.00
2022-11-25T09:41:11.159Z,97380.00
2022-11-25T09:44:45.768Z,97384.00
2022-11-25T09:47:48.956Z,97392.00
2022-11-25T09:51:00.508Z,97394.00
2022-11-25T09:53:41.406Z,97393.00
2022-11-25T09:56:47.498Z,97382.00
2022-11-25T09:59:45.818Z,97393.00
2022-11-25T10:02:23.584Z,97392.00
2022-11-25T10:05:06.381Z,97403.00
2022-11-25T10:07:49.064Z,97406.00
2022-11-25T10:10:38.534Z,97407.00
2022-11-25T10:13:16.232Z,97410.00
2022-11-25T10:15:49.877Z,97399.00
2022-11-25T10:18:38.699Z,97404.00
2022-11-25T10:21:05.295Z,97423.00
2022-11-25T10:23:35.200Z,97417.00
2022-11-25T10:26:14.121Z,97420.00
2022-11-25T10:28:51.522Z,97418.00
2022-11-25T10:31:23.668Z,97407.00
2022-11-25T10:33:56.206Z,97423.00
2022-11-25T10:36:41.603Z,97415.00
2022-11-25T10:39:27.499Z,97422.00
2022-11-25T10:42:06.396Z,97413.00
2022-11-25T10:44:37.468Z,97417.00
2022-11-25T10:47:37.609Z,97422.00
2022-11-25T10:50:17.043Z,97428.00
2022-11-25T10:52:59.882Z,97424.00
2022-11-25T10:55:30.852Z,97433.00
2022-11-25T10:57:58.744Z,97426.00
2022-11-25T11:00:36.154Z,97437.00
2022-11-25T11:03:24.913Z,97427.00
2022-11-25T11:05:53.805Z,97433.00
2022-11-25T11:08:35.449Z,97449.00
2022-11-25T11:11:16.955Z,97437.00
2022-11-25T11:13:44.278Z,97462.00
2022-11-25T11:16:36.618Z,97456.00
2022-11-25T11:19:03.945Z,97451.00
2022-11-25T11:21:37.190Z,97455.00
2022-11-25T11:24:34.643Z,97469.00
2022-11-25T11:27:20.239Z,97464.00
2022-11-25T11:29:46.529Z,97465.00
2022-11-25T11:32:24.471Z,97475.00
2022-11-25T11:35:11.731Z,97470.00
2022-11-25T11:37:48.525Z,97465.00
2022-11-25T11:40:45.740Z,97464.00
2022-11-25T11:43:55.645Z,97465.00
2022-11-25T11:47:21.068Z,97467.00
2022-11-25T11:50:24.304Z,97480.00
2022-11-25T11:52:56.300Z,97481.00
2022-11-25T11:59:17.061Z,97486.00
2022-11-25T12:02:04.367Z,97486.00
2022-11-25T12:04:45.962Z,97484.00
2022-11-25T12:07:34.153Z,97484.00
2022-11-25T12:10:13.574Z,97494.00
2022-11-25T12:13:38.039Z,97480.00
2022-11-25T12:16:17.220Z,97490.00
2022-11-25T12:19:32.819Z,97509.00
2022-11-25T12:22:19.021Z,97503.00
2022-11-25T12:25:05.519Z,97505.00
2022-11-25T12:27:43.532Z,97509.00
2022-11-25T12:30:14.100Z,97522.00
2022-11-25T12:33:06.205Z,97509.00
2022-11-25T12:36:11.174Z,97518.00
2022-11-25T12:38:53.989Z,97527.00
2022-11-25T12:41:52.561Z,97533.00
2022-11-25T12:44:47.541Z,97524.00
2022-11-25T12:47:13.836Z,97530.00
2022-11-25T12:49:47.999Z,97531.00
2022-11-25T12:52:53.166Z,97545.00
2022-11-25T12:55:27.107Z,97540.00
2022-11-25T12:58:15.129Z,97546.00
2022-11-25T13:01:11.353Z,97538.00
2022-11-25T13:04:06.448Z,97549.00
2022-11-25T13:07:00.373Z,97556.00
2022-11-25T13:10:02.325Z,97549.00
2022-11-25T13:13:02.707Z,97560.00
2022-11-25T13:15:43.741Z,97570.00
2022-11-25T13:18:18.994Z,97554.00
2022-11-25T13:20:48.810Z,97562.00
2022-11-25T13:23:17.933Z,97567.00
2022-11-25T13:25:47.533Z,97571.00
2022-11-25T13:28:33.233Z,97564.00
2022-11-25T13:31:31.463Z,97577.00
2022-11-25T13:34:07.899Z,97585.00
2022-11-25T13:36:53.278Z,97575.00
2022-11-25T13:39:35.256Z,97571.00
2022-11-25T13:42:25.098Z,97580.00
2022-11-25T13:44:59.535Z,97581.00
2022-11-25T13:47:38.211Z,97586.00
2022-11-25T13:50:24.413Z,97593.00
2022-11-25T13:53:32.619Z,97609.00
2022-11-25T13:56:20.601Z,97603.00
2022-11-25T13:59:09.990Z,97612.00
2022-11-25T14:01:45.210Z,97600.00
2022-11-25T14:04:15.067Z,97616.00
2022-11-25T14:06:57.161Z,97617.00
2022-11-25T14:09:57.415Z,97612.00
2022-11-25T14:13:01.026Z,97618.00
2022-11-25T14:16:05.353Z,97622.00
2022-11-25T14:19:28.497Z,97617.00
2022-11-25T14:21:43.964Z,97624.00
2022-11-25T14:24:42.511Z,97639.00
2022-11-25T14:27:24.933Z,97641.00
2022-11-25T14:30:02.981Z,97647.00
2022-11-25T14:32:51.277Z,97638.00
2022-11-25T14:35:29.619Z,97651.00
2022-11-25T14:38:24.158Z,97652.00
2022-11-25T14:41:17.157Z,97658.00
2022-11-25T14:43:53.123Z,97661.00
2022-11-25T14:46:21.988Z,97669.00
2022-11-25T14:48:58.296Z,97655.00
2022-11-25T14:51:33.198Z,97656.00
2022-11-25T14:53:59.538Z,97661.00
2022-11-25T14:56:33.679Z,97668.00
2022-11-25T14:59:00.914Z,97670.00
2022-11-25T15:01:33.582Z,97679.00
2022-11-25T15:04:22.544Z,97674.00
2022-11-25T15:06:57.066Z,97680.00
2022-11-25T15:09:30.169Z,97676.00
2022-11-25T15:12:12.982Z,97682.00
2022-11-25T15:14:46.803Z,97671.00
2022-11-25T15:17:32.288Z,97680.00
2022-11-25T15:20:14.467Z,97694.00
2022-11-25T15:22:51.073Z,97695.00
2022-11-25T15:25:18.278Z,97692.00
2022-11-25T15:27:49.168Z,97707.00
2022-11-25T15:30:26.394Z,97688.00
2022-11-25T15:32:54.758Z,97706.00
2022-11-25T15:35:25.320Z,97698.00
2022-11-25T15:37:53.577Z,97710.00
2022-11-25T15:40:42.142Z,97713.00
2022-11-25T15:43:25.322Z,97709.00
2022-11-25T15:45:59.390Z,97712.00
2022-11-25T15:48:37.904Z,97726.00
2022-11-25T15:52:08.514Z,97731.00
2022-11-25T15:54:45.019Z,97740.00
2022-11-25T15:57:33.760Z,97744.00
2022-11-25T15:59:59.905Z,97748.00
2022-11-25T16:02:41.249Z,97751.00
2022-11-25T16:05:13.192Z,97756.00
2022-11-25T16:08:14.647Z,97753.00
2022-11-25T16:10:41.094Z,97781.00
2022-11-25T16:13:22.967Z,97776.00
2022-11-25T16:16:07.739Z,97758.00
2022-11-25T16:18:59.886Z,97772.00
2022-11-25T16:21:40.038Z,97790.00
2022-11-25T16:24:06.384Z,97794.00
2022-11-25T16:26:54.159Z,97790.00
2022-11-25T16:29:52.726Z,97793.00
2022-11-25T16:32:23.475Z,97792.00
2022-11-25T16:34:50.336Z,97797.00
2022-11-25T16:37:16.854Z,97792.00
2022-11-25T16:39:43.031Z,97802.00
2022-11-25T16:42:20.932Z,97809.00
2022-11-25T16:44:50.903Z,97807.00
2022-11-25T16:47:20.767Z,97816.00
2022-11-25T16:49:47.109Z,97808.00
2022-11-25T16:52:14.160Z,97819.00
2022-11-25T16:54:41.070Z,97833.00
2022-11-25T16:57:17.076Z,97833.00
2022-11-25T16:59:46.161Z,97833.00
2022-11-25T17:02:21.004Z,97842.00
2022-11-25T17:04:48.330Z,97829.00
2022-11-25T17:07:32.073Z,97844.00
2022-11-25T17:09:59.230Z,97844.00
2022-11-25T17:12:32.301Z,97846.00
2022-11-25T17:15:01.151Z,97841.00
2022-11-25T17:17:28.166Z,97849.00
2022-11-25T17:19:54.731Z,97848.00
2022-11-25T17:22:25.162Z,97859.00
2022-11-25T17:24:51.984Z,97865.00
2022-11-25T17:27:31.242Z,97877.00
2022-11-25T17:30:00.726Z,97858.00
2022-11-25T17:32:27.364Z,97876.00
2022-11-25T17:34:53.594Z,97877.00
2022-11-25T17:37:23.315Z,97880.00
2022-11-25T17:39:54.397Z,97872.00
2022-11-25T17:42:30.938Z,97889.00
2022-11-25T17:44:57.662Z,97888.00
2022-11-25T17:47:23.915Z,97888.00
2022-11-25T17:49:51.216Z,97909.00
2022-11-25T17:52:17.403Z,97920.00
2022-11-25T17:54:43.598Z,97908.00
2022-11-25T17:57:20.554Z,97922.00
2022-11-25T17:59:47.047Z,97909.00
2022-11-25T18:02:21.487Z,97925.00
2022-11-25T18:04:48.360Z,97930.00
2022-11-25T18:07:14.571Z,97953.00
2022-11-25T18:09:40.827Z,97933.00
2022-11-25T18:12:25.948Z,97948.00
2022-11-25T18:14:52.489Z,97950.00
2022-11-25T18:17:19.158Z,97957.00
2022-11-25T18:19:52.924Z,97951.00
2022-11-25T18:22:23.061Z,97951.00
2022-11-25T18:24:49.372Z,97957.00
2022-11-25T18:27:27.960Z,97970.00
2022-11-25T18:29:56.521Z,97963.00
2022-11-25T18:32:24.869Z,97969.00
2022-11-25T18:34:51.593Z,97960.00
2022-11-25T18:37:18.148Z,97978.00
2022-11-25T18:39:44.412Z,97985.00
2022-11-25T18:42:25.119Z,97977.00
2022-11-25T18:44:53.431Z,97986.00
2022-11-25T18:47:19.582Z,97990.00
2022-11-25T18:49:45.774Z,98002.00
2022-11-25T18:52:11.997Z,97991.00
2022-11-25T18:54:38.367Z,97988.00
2022-11-25T18:57:04.867Z,98018.00
2022-11-25T18:59:34.370Z,98000.00
2022-11-25T19:02:01.032Z,98010.00
2022-11-25T19:04:27.774Z,98031.00
2022-11-25T19:06:53.990Z,98031.00
2022-11-25T19:09:20.154Z,98024.00
2022-11-25T19:11:51.671Z,98029.00
2022-11-25T19:14:32.561Z,98027.00
2022-11-25T19:17:05.612Z,98048.00
2022-11-25T19:19:32.446Z,98040.00
2022-11-25T19:22:00.582Z,98036.00
2022-11-25T19:24:27.602Z,98037.00
2022-11-25T19:26:56.600Z,98048.00
2022-11-25T19:29:41.750Z,98062.00
2022-11-25T19:32:22.052Z,98053.00
2022-11-25T19:34:54.022Z,98075.00
2022-11-25T19:37:22.269Z,98066.00
2022-11-25T19:39:52.502Z,98060.00
2022-11-25T19:42:18.842Z,98073.00
2022-11-25T19:44:46.127Z,98074.00
2022-11-25T19:47:24.990Z,98077.00
2022-11-25T19:49:56.687Z,98077.00
2022-11-25T19:52:38.425Z,98081.00
2022-11-25T19:55:20.730Z,98099.00
2022-11-25T19:57:48.602Z,98109.00
2022-11-25T20:00:17.442Z,98099.00
2022-11-25T20:02:45.872Z,98099.00
2022-11-25T20:05:38.285Z,98107.00
2022-11-25T20:08:04.740Z,98117.00
2022-11-25T20:10:31.849Z,98112.00
2022-11-25T20:12:58.957Z,98134.00
2022-11-25T20:15:25.819Z,98129.00
2022-11-25T20:17:59.146Z,98125.00
2022-11-25T20:20:34.200Z,98122.00
2022-11-25T20:23:44.007Z,98144.00
2022-11-25T20:26:39.331Z,98149.00
2022-11-25T20:29:17.816Z,98144.00
2022-11-25T20:31:44.741Z,98149.00
2022-11-25T20:34:10.975Z,98140.00
2022-11-25T20:36:40.441Z,98159.00
2022-11-25T20:39:11.777Z,98162.00
2022-11-25T20:41:37.966Z,98172.00
2022-11-25T20:44:04.571Z,98150.00
2022-11-25T20:46:31.386Z,98163.00
2022-11-25T20:49:01.516Z,98172.00
2022-11-25T20:51:27.827Z,98158.00
2022-11-25T20:54:02.496Z,98179.00
2022-11-25T20:56:29.543Z,98177.00
2022-11-25T20:58:56.206Z,98178.00
2022-11-25T21:01:22.497Z,98183.00
2022-11-25T21:03:49.600Z,98196.00
2022-11-25T21:06:27.856Z,98188.00
2022-11-25T21:08:58.361Z,98184.00
2022-11-25T21:11:27.139Z,98200.00
2022-11-25T21:13:53.930Z,98195.00
2022-11-25T21:16:20.196Z,98196.00
2022-11-25T21:18:46.591Z,98204.00
2022-11-25T21:21:30.769Z,98221.00
2022-11-25T21:24:12.258Z,98204.00
2022-11-25T21:26:38.381Z,98209.00
2022-11-25T21:29:04.520Z,98222.00
2022-11-25T21:31:30.772Z,98228.00
2022-11-25T21:34:01.202Z,98219.00
2022-11-25T21:36:30.478Z,98238.00
2022-11-25T21:39:24.302Z,98238.00
2022-11-25T21:41:50.633Z,98241.00
2022-11-25T21:44:29.779Z,98225.00
2022-11-25T21:46:56.172Z,98246.00
2022-11-25T21:49:24.486Z,98250.00
2022-11-25T21:51:50.662Z,98255.00
2022-11-25T21:54:16.859Z,98249.00
2022-11-25T21:56:43.842Z,98240.00
2022-11-25T21:59:18.495Z,98255.00
2022-11-25T22:01:45.957Z,98251.00
2022-11-25T22:04:15.714Z,98254.00
2022-11-25T22:06:42.471Z,98259.00
2022-11-25T22:09:10.406Z,98262.00
2022-11-25T22:11:44.358Z,98260.00
2022-11-25T22:14:33.351Z,98269.00
2022-11-25T22:17:05.455Z,98273.00
2022-11-25T22:19:32.034Z,98261.00
2022-11-25T22:21:58.339Z,98270.00
2022-11-25T22:24:24.574Z,98279.00
2022-11-25T22:26:57.475Z,98278.00
2022-11-25T22:29:32.418Z,98282.00
2022-11-25T22:31:58.586Z,98282.00
2022-11-25T22:34:25.004Z,98283.00
2022-11-25T22:36:51.678Z,98290.00
2022-11-25T22:39:24.753Z,98299.00
2022-11-25T22:42:08.943Z,98299.00
2022-11-25T22:44:46.080Z,98296.00
2022-11-25T22:47:32.438Z,98302.00
2022-11-25T22:50:03.030Z,98297.00
2022-11-25T22:52:33.861Z,98298.00
2022-11-25T22:55:21.346Z,98308.00
2022-11-25T22:57:49.773Z,98322.00
2022-11-25T23:00:25.139Z,98323.00
2022-11-25T23:02:55.494Z,98307.00
2022-11-25T23:05:33.889Z,98315.00
2022-11-25T23:08:14.245Z,98332.00
2022-11-25T23:10:40.985Z,98323.00
2022-11-25T23:13:07.299Z,98320.00
2022-11-25T23:15:34.376Z,98341.00
2022-11-25T23:18:04.212Z,98335.00
2022-11-25T23:20:34.813Z,98338.00
2022-11-25T23:23:19.280Z,98356.00
2022-11-25T23:25:46.494Z,98359.00
2022-11-25T23:28:13.139Z,98364.00
2022-11-25T23:31:00.934Z,98353.00
2022-11-25T23:33:45.817Z,98353.00
2022-11-25T23:36:22.539Z,98363.00
2022-11-25T23:38:59.263Z,98359.00
2022-11-25T23:41:32.380Z,98364.00
2022-11-25T23:44:13.873Z,98357.00
2022-11-25T23:46:41.093Z,98379.00
2022-11-25T23:49:20.459Z,98367.00
2022-11-25T23:51:47.118Z,98377.00
2022-11-25T23:54:17.503Z,98377.00
2022-11-25T23:56:43.788Z,98380.00
2022-11-25T23:59:15.997Z,98393.00
